SBPL/PNZ METAR and TAF weather

Enter ICAO airport designator
Station Type Date Time Source
SBPL METAR 2019/09/21 04:00 UTC NOAA

SBPL 210400Z 14012KT CAVOK 24/18 Q1015


Station Type Date Time Source
SBPL Decoded METAR 2019/09/21 04:00 UTC NOAA

Petrolina , Brazil (SBPL) 09-21S 040-33W
Sep 21, 2019 - 12:00 AM EDT / 2019.09.21 0400 UTC
Wind: from the SE (140 degrees) at 14 MPH (12 KT):0
Visibility: greater than 7 mile(s):0
Temperature: 75 F (24 C)
Dew Point: 64 F (18 C)
Relative Humidity: 69%
Pressure (altimeter): 29.97 in. Hg (1015 hPa)
ob: SBPL 210400Z 14012KT CAVOK 24/18 Q1015
cycle: 4

Station Type Date Time Source
SBPL TAF 2019/09/21 06:48 UTC NOAA

TAF SBPL 210400Z 2106/2206 13010KT CAVOK TN22/2107Z TX33/2116Z
BECMG 2108/2110 9999 SCT018
BECMG 2121/2123 CAVOK
RMK PEU

Example: see airport list